Time;durP1;ratioP1;P1;durP2;ratioP2;P2;SDS_P1;SDS_P2;PMS_P1;PMS_P2;Temp;Humidity;BMP_temperature;BMP_pressure;BME280_temperature;BME280_humidity;BME280_pressure;Samples;Min_cycle;Max_cycle;Signal;HPM_P1;HPM_P2
2022/02/08 02:06:23;;;;;;;1.17;0.50;;;;;;;;;;5783481;23;20033;-81
2022/02/08 02:31:08;;;;;;;1.70;0.20;;;;;;;;;;6221789;23;20039;-81
2022/02/08 02:43:22;;;;;;;1.45;0.15;;;;;;;;;;6132774;23;20061;-82
2022/02/08 03:52:28;;;;;;;2.63;0.83;;;;;;;;;;6175108;22;20009;-81
2022/02/08 04:08:09;;;;;;;2.53;0.40;;;;;;;;;;6210078;22;20009;-83
2022/02/08 04:59:50;;;;;;;;;;;;;;;;;;;;;
2022/02/08 06:16:03;;;;;;;6.30;0.80;;;;;;;;;;6189287;23;20004;-80
2022/02/08 06:19:04;;;;;;;1.27;0.30;;;;;;;;;;6220305;23;20047;-79
2022/02/08 06:25:08;;;;;;;2.78;0.47;;;;;;;;;;6233800;23;20040;-81
2022/02/08 06:27:51;;;;;;;1.73;0.55;;;;;;;;;;6214170;23;20080;-80
2022/02/08 06:30:36;;;;;;;2.53;0.85;;;;;;;;;;6115932;23;20036;-82
2022/02/08 06:33:50;;;;;;;2.87;0.40;;;;;;;;;;6214414;23;20116;-80
2022/02/08 06:36:20;;;;;;;8.57;1.27;;;;;;;;;;6214952;23;20030;-81
2022/02/08 06:39:19;;;;;;;2.88;0.90;;;;;;;;;;6240647;23;20012;-80
2022/02/08 06:41:54;;;;;;;1.38;0.55;;;;;;;;;;6214808;23;20008;-81
2022/02/08 06:44:27;;;;;;;1.27;0.68;;;;;;;;;;6214420;23;20009;-81
2022/02/08 06:46:56;;;;;;;1.30;0.50;;;;;;;;;;6238982;23;20009;-80
2022/02/08 06:49:30;;;;;;;9.30;0.73;;;;;;;;;;6214467;23;20047;-80
2022/02/08 06:52:05;;;;;;;2.10;0.45;;;;;;;;;;6214728;23;20012;-80
2022/02/08 06:55:02;;;;;;;2.08;0.90;;;;;;;;;;6241261;23;20012;-81
2022/02/08 06:57:49;;;;;;;8.88;0.98;;;;;;;;;;6190846;23;20005;-80
2022/02/08 07:00:23;;;;;;;6.67;0.83;;;;;;;;;;6244305;23;20009;-81
2022/02/08 07:02:57;;;;;;;6.97;1.05;;;;;;;;;;6219835;23;19996;-81
2022/02/08 07:05:32;;;;;;;9.73;0.73;;;;;;;;;;6245011;23;20000;-81
2022/02/08 07:08:03;;;;;;;6.05;1.27;;;;;;;;;;6242401;23;20016;-80
2022/02/08 07:10:34;;;;;;;2.90;0.90;;;;;;;;;;6211554;23;20015;-81
2022/02/08 07:13:31;;;;;;;1.50;0.43;;;;;;;;;;6243353;23;20013;-80
2022/02/08 07:16:00;;;;;;;1.42;0.35;;;;;;;;;;6240949;23;20007;-81
2022/02/08 07:18:36;;;;;;;6.03;0.80;;;;;;;;;;6192549;23;20024;-81
2022/02/08 07:21:11;;;;;;;4.00;0.82;;;;;;;;;;6243603;23;20190;-80
2022/02/08 07:23:43;;;;;;;0.98;0.32;;;;;;;;;;6216248;23;20076;-81
2022/02/08 07:26:13;;;;;;;2.53;0.70;;;;;;;;;;6243061;23;20092;-81
2022/02/08 07:28:44;;;;;;;3.08;0.90;;;;;;;;;;6217411;23;20012;-81
2022/02/08 07:31:18;;;;;;;5.53;1.42;;;;;;;;;;6233634;23;20025;-80
2022/02/08 07:34:00;;;;;;;1.73;1.58;;;;;;;;;;6218561;23;20008;-80
2022/02/08 07:36:40;;;;;;;4.68;0.73;;;;;;;;;;6216477;23;20016;-80
2022/02/08 07:39:13;;;;;;;1.93;0.50;;;;;;;;;;6241845;23;20016;-80
2022/02/08 07:41:44;;;;;;;1.90;0.90;;;;;;;;;;6242755;22;20008;-81
2022/02/08 07:44:14;;;;;;;1.65;0.70;;;;;;;;;;6191779;23;20023;-81
2022/02/08 07:47:10;;;;;;;3.85;1.35;;;;;;;;;;6210904;23;20009;-80
2022/02/08 07:49:53;;;;;;;3.95;0.80;;;;;;;;;;6218257;23;20047;-80
2022/02/08 07:52:25;;;;;;;5.10;1.23;;;;;;;;;;6217656;22;20024;-80
2022/02/08 07:54:57;;;;;;;10.73;0.85;;;;;;;;;;6217214;23;20021;-81
2022/02/08 07:57:27;;;;;;;9.88;1.20;;;;;;;;;;6244194;22;20013;-80
2022/02/08 07:59:59;;;;;;;2.65;0.75;;;;;;;;;;6192998;23;20031;-81
2022/02/08 08:02:29;;;;;;;2.00;0.90;;;;;;;;;;6241365;23;20020;-81
2022/02/08 08:04:59;;;;;;;2.93;1.23;;;;;;;;;;6192709;23;20008;-81
2022/02/08 08:07:29;;;;;;;1.55;0.52;;;;;;;;;;6243627;23;20020;-80
2022/02/08 08:10:00;;;;;;;7.50;1.05;;;;;;;;;;6243047;22;20470;-81
2022/02/08 08:12:36;;;;;;;5.38;0.90;;;;;;;;;;6192224;23;20005;-81
2022/02/08 08:15:54;;;;;;;1.67;0.52;;;;;;;;;;6220157;23;20051;-80
2022/02/08 08:18:54;;;;;;;1.00;0.30;;;;;;;;;;6243101;23;20003;-81
2022/02/08 08:21:27;;;;;;;3.08;0.70;;;;;;;;;;6192639;23;20021;-81
2022/02/08 08:23:59;;;;;;;8.18;0.93;;;;;;;;;;6243007;23;20008;-81
2022/02/08 08:26:29;;;;;;;3.47;1.00;;;;;;;;;;6216982;23;20011;-81
2022/02/08 08:28:59;;;;;;;2.30;0.45;;;;;;;;;;6243093;23;20031;-81
2022/02/08 08:31:29;;;;;;;4.87;2.00;;;;;;;;;;6183909;23;20004;-80
2022/02/08 08:34:10;;;;;;;1.20;0.40;;;;;;;;;;6243488;23;20003;-81
2022/02/08 08:36:59;;;;;;;7.80;0.57;;;;;;;;;;6243664;23;20015;-81
2022/02/08 08:39:39;;;;;;;1.75;0.57;;;;;;;;;;6242496;23;20019;-80
2022/02/08 08:50:48;;;;;;;1.27;0.32;;;;;;;;;;6243390;23;20000;-81
2022/02/08 08:56:13;;;;;;;3.55;1.55;;;;;;;;;;6242203;23;20020;-80
2022/02/08 08:58:44;;;;;;;4.50;1.33;;;;;;;;;;6209866;23;20016;-80
2022/02/08 09:01:14;;;;;;;2.90;0.55;;;;;;;;;;6191355;23;20016;-81
2022/02/08 09:03:45;;;;;;;4.80;1.15;;;;;;;;;;6217125;23;19996;-81
2022/02/08 09:06:15;;;;;;;3.33;0.77;;;;;;;;;;6166177;23;20063;-81
2022/02/08 09:08:45;;;;;;;7.40;0.77;;;;;;;;;;6243235;23;20012;-81
2022/02/08 09:11:35;;;;;;;1.73;0.97;;;;;;;;;;6191950;23;20001;-82
2022/02/08 09:14:10;;;;;;;1.75;0.30;;;;;;;;;;6192081;23;20044;-81
2022/02/08 09:16:46;;;;;;;1.90;0.52;;;;;;;;;;6214819;23;20035;-81
2022/02/08 09:22:24;;;;;;;4.63;0.73;;;;;;;;;;6224991;23;20012;-81
2022/02/08 09:25:11;;;;;;;3.43;0.73;;;;;;;;;;6192454;23;20025;-80
2022/02/08 09:27:58;;;;;;;1.05;0.28;;;;;;;;;;6191805;23;20028;-79
2022/02/08 09:30:58;;;;;;;4.88;0.95;;;;;;;;;;6220902;22;20023;-80
2022/02/08 09:33:27;;;;;;;8.60;1.13;;;;;;;;;;6240957;23;20032;-80
2022/02/08 09:35:58;;;;;;;1.60;0.88;;;;;;;;;;6241145;23;20020;-82
2022/02/08 09:41:31;;;;;;;2.42;1.15;;;;;;;;;;6214665;23;20027;-81
2022/02/08 09:44:03;;;;;;;3.35;1.35;;;;;;;;;;6213845;23;20020;-81
2022/02/08 09:46:40;;;;;;;1.10;0.30;;;;;;;;;;6212087;23;20028;-80
2022/02/08 09:49:11;;;;;;;3.35;0.82;;;;;;;;;;6214806;23;20024;-81
2022/02/08 09:51:54;;;;;;;3.23;1.23;;;;;;;;;;6192245;23;20027;-80
2022/02/08 09:54:25;;;;;;;2.13;0.60;;;;;;;;;;6213019;23;20040;-80
2022/02/08 09:56:55;;;;;;;3.28;0.55;;;;;;;;;;6212658;23;20017;-80
2022/02/08 09:59:26;;;;;;;1.33;0.40;;;;;;;;;;6188010;23;20080;-81
2022/02/08 10:01:57;;;;;;;3.72;0.50;;;;;;;;;;6231341;23;20004;-81
2022/02/08 10:04:30;;;;;;;1.50;0.60;;;;;;;;;;6239938;23;20024;-80
2022/02/08 10:07:11;;;;;;;2.47;0.50;;;;;;;;;;6213692;23;20020;-81
2022/02/08 10:09:43;;;;;;;5.50;0.60;;;;;;;;;;6191376;23;20040;-81
2022/02/08 10:12:17;;;;;;;1.48;0.60;;;;;;;;;;6241445;22;20000;-80
2022/02/08 10:18:56;;;;;;;5.32;0.90;;;;;;;;;;6215189;23;20020;-80
2022/02/08 10:23:59;;;;;;;2.15;0.68;;;;;;;;;;6238150;23;20075;-81
2022/02/08 10:26:39;;;;;;;1.95;0.70;;;;;;;;;;6213729;23;20017;-81
2022/02/08 10:29:24;;;;;;;3.10;1.30;;;;;;;;;;6190492;23;20013;-81
2022/02/08 10:37:42;;;;;;;15.27;1.63;;;;;;;;;;6243450;23;20023;-80
2022/02/08 10:40:15;;;;;;;4.70;1.30;;;;;;;;;;6219000;23;20024;-81
2022/02/08 10:42:51;;;;;;;2.45;0.47;;;;;;;;;;6244301;23;20016;-81
2022/02/08 10:45:22;;;;;;;2.20;0.93;;;;;;;;;;6190722;23;20008;-80
2022/02/08 10:48:04;;;;;;;5.47;1.00;;;;;;;;;;6191628;23;20000;-81
2022/02/08 10:50:36;;;;;;;7.18;1.00;;;;;;;;;;6240059;23;20056;-80
2022/02/08 10:53:07;;;;;;;2.88;0.95;;;;;;;;;;6190082;23;20001;-81
2022/02/08 10:55:48;;;;;;;8.10;1.08;;;;;;;;;;6243641;23;20020;-81
2022/02/08 10:58:26;;;;;;;2.03;0.80;;;;;;;;;;6217795;23;20028;-80
2022/02/08 11:01:04;;;;;;;3.38;0.82;;;;;;;;;;6216948;23;20017;-81
2022/02/08 11:03:46;;;;;;;1.92;0.70;;;;;;;;;;6218555;23;20021;-81
2022/02/08 11:06:24;;;;;;;2.28;0.85;;;;;;;;;;6219300;23;20008;-81
2022/02/08 11:09:17;;;;;;;3.95;1.17;;;;;;;;;;6241658;23;20017;-81
2022/02/08 11:12:09;;;;;;;3.30;0.73;;;;;;;;;;6245099;23;20027;-81
2022/02/08 11:15:00;;;;;;;4.32;1.45;;;;;;;;;;6243852;23;20023;-81
2022/02/08 11:20:32;;;;;;;7.40;0.50;;;;;;;;;;6235133;23;20420;-80
2022/02/08 11:23:14;;;;;;;2.83;0.90;;;;;;;;;;6222897;23;20070;-80
2022/02/08 11:25:59;;;;;;;5.23;0.50;;;;;;;;;;6214579;22;20047;-80
2022/02/08 11:28:53;;;;;;;8.15;0.73;;;;;;;;;;6210723;23;20011;-81
2022/02/08 11:31:38;;;;;;;4.70;0.65;;;;;;;;;;6243759;22;20001;-80
2022/02/08 11:39:04;;;;;;;1.90;0.85;;;;;;;;;;6206404;23;20020;-81
2022/02/08 11:46:29;;;;;;;3.58;1.73;;;;;;;;;;6202054;23;20027;-80
2022/02/08 11:49:37;;;;;;;3.78;0.60;;;;;;;;;;6215571;23;20012;-81
2022/02/08 14:02:19;;;;;;;2.97;0.85;;;;;;;;;;6216665;22;20514;-79
2022/02/08 14:05:42;;;;;;;2.28;0.50;;;;;;;;;;6196439;23;20017;-79
2022/02/08 14:08:22;;;;;;;3.05;0.68;;;;;;;;;;6197024;23;20025;-80
2022/02/08 14:16:39;;;;;;;1.77;0.60;;;;;;;;;;6194246;23;20039;-79
2022/02/08 14:19:21;;;;;;;2.35;0.60;;;;;;;;;;6198594;23;20001;-80
2022/02/08 14:21:58;;;;;;;4.05;0.35;;;;;;;;;;6195658;23;20025;-80
2022/02/08 14:24:46;;;;;;;3.63;0.93;;;;;;;;;;6195470;23;20023;-81
2022/02/08 14:31:00;;;;;;;1.30;0.93;;;;;;;;;;6193486;23;20025;-80
2022/02/08 14:36:30;;;;;;;1.98;0.65;;;;;;;;;;6196772;23;20028;-80
2022/02/08 15:07:43;;;;;;;3.03;0.70;;;;;;;;;;6191843;23;20021;-80
2022/02/08 15:10:06;;;;;;;6.35;0.95;;;;;;;;;;6218202;23;20020;-80
2022/02/08 15:12:40;;;;;;;5.72;0.77;;;;;;;;;;6221102;23;20016;-81
2022/02/08 15:15:20;;;;;;;3.03;0.70;;;;;;;;;;6218429;23;20025;-80
2022/02/08 15:17:51;;;;;;;7.30;0.50;;;;;;;;;;6249475;23;20036;-80
2022/02/08 15:20:23;;;;;;;5.10;1.00;;;;;;;;;;6226287;23;20023;-80
2022/02/08 15:22:53;;;;;;;6.47;0.47;;;;;;;;;;6224735;23;20079;-80
2022/02/08 15:25:23;;;;;;;1.88;0.70;;;;;;;;;;6253557;23;20022;-80
2022/02/08 15:27:51;;;;;;;2.28;0.63;;;;;;;;;;6226784;23;20442;-80
2022/02/08 15:30:25;;;;;;;5.30;0.90;;;;;;;;;;6263929;22;20020;-80
2022/02/08 15:32:55;;;;;;;2.77;0.83;;;;;;;;;;6225545;23;20008;-80
2022/02/08 15:35:29;;;;;;;4.30;0.95;;;;;;;;;;6229019;23;20016;-80
2022/02/08 15:38:28;;;;;;;2.00;0.90;;;;;;;;;;6253828;23;20024;-80
2022/02/08 15:40:58;;;;;;;5.35;1.08;;;;;;;;;;6227570;23;20016;-80
2022/02/08 15:43:31;;;;;;;6.25;1.20;;;;;;;;;;6235319;23;20016;-80
2022/02/08 15:53:02;;;;;;;3.40;0.85;;;;;;;;;;6202215;23;20020;-80
2022/02/08 15:55:39;;;;;;;3.05;1.30;;;;;;;;;;6180447;23;20027;-80
2022/02/08 15:58:24;;;;;;;3.72;0.82;;;;;;;;;;6177056;23;20043;-79
2022/02/08 16:10:31;;;;;;;2.30;1.17;;;;;;;;;;6191778;22;20008;-80
2022/02/08 16:13:23;;;;;;;6.85;1.02;;;;;;;;;;6145071;23;20024;-80
2022/02/08 16:16:13;;;;;;;4.47;0.80;;;;;;;;;;6140008;23;20021;-80
2022/02/08 16:18:55;;;;;;;2.28;1.10;;;;;;;;;;6132568;23;20072;-80
2022/02/08 16:21:55;;;;;;;5.57;1.23;;;;;;;;;;6129851;23;20125;-80
2022/02/08 16:27:25;;;;;;;3.03;1.05;;;;;;;;;;6134621;23;20092;-80
2022/02/08 16:50:18;;;;;;;4.13;1.55;;;;;;;;;;6035029;23;20019;-79
2022/02/08 16:53:06;;;;;;;3.30;1.40;;;;;;;;;;6122136;23;20437;-79
2022/02/08 16:56:04;;;;;;;3.28;1.40;;;;;;;;;;6167775;23;20040;-78
2022/02/08 16:59:05;;;;;;;4.03;1.80;;;;;;;;;;6146495;23;20017;-80
2022/02/08 17:01:36;;;;;;;1.42;0.50;;;;;;;;;;6186816;23;20096;-75
2022/02/08 17:04:10;;;;;;;2.80;1.23;;;;;;;;;;6163826;23;20111;-80
2022/02/08 17:36:04;;;;;;;2.95;1.42;;;;;;;;;;6152195;23;20072;-77
2022/02/08 17:46:36;;;;;;;5.83;2.07;;;;;;;;;;6170934;23;20040;-76
2022/02/08 17:49:11;;;;;;;3.47;1.05;;;;;;;;;;6173280;23;20029;-76
2022/02/08 17:51:42;;;;;;;4.07;1.58;;;;;;;;;;6174768;23;20020;-77
2022/02/08 17:54:15;;;;;;;4.00;1.70;;;;;;;;;;6150638;23;20025;-75
2022/02/08 17:56:45;;;;;;;5.32;1.83;;;;;;;;;;6127069;23;20072;-77
2022/02/08 17:59:15;;;;;;;9.97;4.07;;;;;;;;;;6173989;23;20389;-77
2022/02/08 18:01:44;;;;;;;4.90;1.63;;;;;;;;;;6147874;23;20029;-76
2022/02/08 18:04:14;;;;;;;1.98;0.85;;;;;;;;;;6151197;23;20471;-76
2022/02/08 18:06:45;;;;;;;6.20;2.08;;;;;;;;;;6153318;23;20030;-76
2022/02/08 18:09:17;;;;;;;3.22;1.30;;;;;;;;;;6151534;23;20066;-77
2022/02/08 18:11:47;;;;;;;3.20;1.30;;;;;;;;;;6149442;23;20026;-76
2022/02/08 18:14:19;;;;;;;4.80;1.10;;;;;;;;;;6150363;23;20471;-76
2022/02/08 18:17:02;;;;;;;4.40;1.98;;;;;;;;;;6148773;23;20033;-77
2022/02/08 18:19:35;;;;;;;4.35;1.92;;;;;;;;;;6150042;23;20072;-76
2022/02/08 18:28:07;;;;;;;7.22;3.75;;;;;;;;;;6164187;23;20025;-77
2022/02/08 19:07:30;;;;;;;4.93;2.63;;;;;;;;;;6153699;23;20480;-76
2022/02/08 19:10:23;;;;;;;3.85;2.25;;;;;;;;;;6153720;23;20013;-76
2022/02/08 19:13:24;;;;;;;5.15;2.50;;;;;;;;;;6152114;23;20028;-77
2022/02/08 19:16:14;;;;;;;6.05;2.30;;;;;;;;;;6147944;23;20026;-76
2022/02/08 19:19:02;;;;;;;5.95;2.17;;;;;;;;;;6153455;23;20021;-77
2022/02/08 19:21:45;;;;;;;4.37;1.80;;;;;;;;;;6152615;23;20035;-77
2022/02/08 19:24:19;;;;;;;6.25;2.15;;;;;;;;;;6152513;23;20121;-77
2022/02/08 19:26:48;;;;;;;6.82;2.50;;;;;;;;;;6152321;23;20500;-77
2022/02/08 19:29:21;;;;;;;4.38;1.95;;;;;;;;;;6178082;23;20083;-77
2022/02/08 19:31:50;;;;;;;3.17;1.38;;;;;;;;;;6176164;23;20029;-77
2022/02/08 19:34:19;;;;;;;3.43;1.57;;;;;;;;;;6182719;23;20357;-77
2022/02/08 19:36:50;;;;;;;4.47;1.25;;;;;;;;;;6181812;23;20040;-77
2022/02/08 19:39:19;;;;;;;6.05;1.48;;;;;;;;;;6155990;23;20024;-77
2022/02/08 19:41:48;;;;;;;4.00;1.65;;;;;;;;;;6181743;23;20321;-77
2022/02/08 19:44:18;;;;;;;4.72;1.73;;;;;;;;;;6182408;23;20016;-77
2022/02/08 19:46:49;;;;;;;4.03;2.03;;;;;;;;;;6177587;23;20031;-76
2022/02/08 19:49:19;;;;;;;6.68;2.13;;;;;;;;;;6182663;23;20013;-77
2022/02/08 19:51:48;;;;;;;6.75;2.28;;;;;;;;;;6181537;23;20029;-77
2022/02/08 19:54:21;;;;;;;4.78;1.38;;;;;;;;;;6156069;23;20099;-77
2022/02/08 19:57:19;;;;;;;3.85;1.70;;;;;;;;;;6181447;23;20021;-77
2022/02/08 19:59:49;;;;;;;5.30;1.67;;;;;;;;;;6183077;23;20104;-77
2022/02/08 20:02:24;;;;;;;3.40;1.63;;;;;;;;;;6149367;23;20043;-77
2022/02/08 20:04:53;;;;;;;3.70;1.73;;;;;;;;;;6181611;23;20017;-77
2022/02/08 20:07:22;;;;;;;5.88;1.60;;;;;;;;;;6181353;23;20024;-77
2022/02/08 20:09:52;;;;;;;5.60;2.25;;;;;;;;;;6181825;23;20028;-77
2022/02/08 20:12:29;;;;;;;6.70;1.70;;;;;;;;;;6154591;23;20091;-77
2022/02/08 20:15:12;;;;;;;6.53;1.98;;;;;;;;;;6177752;23;20067;-77
2022/02/08 20:17:43;;;;;;;3.78;1.75;;;;;;;;;;6180660;23;20070;-77
2022/02/08 20:20:15;;;;;;;11.07;1.85;;;;;;;;;;6181842;23;20013;-77
2022/02/08 20:22:48;;;;;;;8.35;2.83;;;;;;;;;;6181055;23;20024;-76
2022/02/08 20:25:23;;;;;;;8.30;2.83;;;;;;;;;;6156038;23;20067;-77
2022/02/08 20:28:05;;;;;;;2.72;1.48;;;;;;;;;;6179125;23;20017;-77
2022/02/08 20:30:36;;;;;;;3.22;2.00;;;;;;;;;;6148268;23;20033;-77
2022/02/08 20:33:07;;;;;;;8.90;1.88;;;;;;;;;;6180227;23;20052;-77
2022/02/08 20:35:35;;;;;;;4.88;1.90;;;;;;;;;;6179803;23;20019;-77
2022/02/08 20:38:06;;;;;;;5.80;1.63;;;;;;;;;;6180835;23;20071;-77
2022/02/08 20:40:38;;;;;;;4.07;2.05;;;;;;;;;;6180384;23;20020;-78
2022/02/08 20:43:09;;;;;;;5.05;1.85;;;;;;;;;;6181506;23;20019;-77
2022/02/08 20:45:44;;;;;;;6.85;2.20;;;;;;;;;;6177087;23;20111;-77
2022/02/08 20:48:15;;;;;;;8.48;2.20;;;;;;;;;;6181855;23;20642;-77
2022/02/08 20:50:46;;;;;;;3.37;1.60;;;;;;;;;;6180481;23;20049;-77
2022/02/08 20:53:23;;;;;;;7.07;2.30;;;;;;;;;;6183269;23;20045;-77
2022/02/08 20:56:08;;;;;;;4.30;1.92;;;;;;;;;;6181131;23;20051;-77
2022/02/08 20:58:52;;;;;;;3.28;1.63;;;;;;;;;;6181602;23;20021;-77
2022/02/08 21:01:45;;;;;;;4.97;2.20;;;;;;;;;;6175630;23;20025;-77
2022/02/08 21:04:26;;;;;;;2.97;1.33;;;;;;;;;;6180386;23;20028;-77
2022/02/08 21:06:57;;;;;;;7.28;1.70;;;;;;;;;;6181002;23;20147;-77
2022/02/08 21:09:26;;;;;;;7.10;2.38;;;;;;;;;;6180677;23;20013;-77
2022/02/08 21:12:05;;;;;;;4.20;2.05;;;;;;;;;;6178970;23;20013;-77
2022/02/08 21:14:35;;;;;;;4.68;1.35;;;;;;;;;;6180826;23;20044;-77
2022/02/08 21:17:04;;;;;;;7.63;1.70;;;;;;;;;;6176723;23;20021;-77
2022/02/08 21:19:35;;;;;;;7.05;2.53;;;;;;;;;;6181339;23;20092;-77
2022/02/08 21:22:04;;;;;;;5.88;1.80;;;;;;;;;;6180557;23;20029;-77
2022/02/08 21:24:34;;;;;;;2.95;1.30;;;;;;;;;;6180964;23;20415;-77
2022/02/08 21:27:30;;;;;;;3.63;1.23;;;;;;;;;;6180877;23;20096;-77
2022/02/08 21:30:17;;;;;;;7.73;1.80;;;;;;;;;;6122138;23;20034;-77
2022/02/08 21:33:05;;;;;;;4.25;1.70;;;;;;;;;;6121193;23;20026;-77
2022/02/08 21:44:44;;;;;;;7.53;1.47;;;;;;;;;;6126228;23;20037;-77
2022/02/08 21:47:38;;;;;;;3.70;1.40;;;;;;;;;;6095398;23;20036;-77
2022/02/08 21:50:20;;;;;;;2.35;1.35;;;;;;;;;;6125396;23;20045;-77
2022/02/08 21:52:50;;;;;;;3.25;1.30;;;;;;;;;;6129127;23;20030;-77
2022/02/08 21:55:18;;;;;;;4.53;1.60;;;;;;;;;;6128093;23;20026;-78
2022/02/08 21:57:52;;;;;;;5.30;1.50;;;;;;;;;;6128890;23;20045;-78
2022/02/08 22:00:22;;;;;;;2.65;1.63;;;;;;;;;;6119435;23;20056;-77
2022/02/08 22:02:52;;;;;;;3.60;1.90;;;;;;;;;;6123862;23;20432;-77
2022/02/08 22:05:22;;;;;;;5.30;1.23;;;;;;;;;;6123810;23;20445;-78
2022/02/08 22:08:03;;;;;;;3.28;1.55;;;;;;;;;;6124679;23;20422;-77
2022/02/08 22:16:29;;;;;;;3.35;1.35;;;;;;;;;;6119055;23;20021;-77
2022/02/08 22:19:53;;;;;;;3.05;1.70;;;;;;;;;;6123960;23;20029;-78
2022/02/08 22:22:27;;;;;;;6.28;1.77;;;;;;;;;;6124603;23;20045;-77
2022/02/08 22:25:20;;;;;;;5.90;1.83;;;;;;;;;;6123393;23;20021;-78
2022/02/08 22:27:54;;;;;;;4.60;1.70;;;;;;;;;;6138042;23;20027;-78
2022/02/08 22:30:39;;;;;;;6.38;1.80;;;;;;;;;;6177626;23;20340;-77
2022/02/08 22:33:38;;;;;;;3.45;1.67;;;;;;;;;;6204281;23;20021;-77
2022/02/08 22:36:16;;;;;;;4.22;1.90;;;;;;;;;;6180965;23;20084;-77
2022/02/08 22:38:51;;;;;;;3.97;1.60;;;;;;;;;;6182903;23;20021;-77
2022/02/08 22:41:29;;;;;;;4.10;1.52;;;;;;;;;;6182721;23;20020;-78
2022/02/08 22:44:05;;;;;;;5.15;1.90;;;;;;;;;;6181302;23;20025;-77
2022/02/08 22:46:34;;;;;;;5.32;2.33;;;;;;;;;;6176099;23;20033;-78
2022/02/08 22:49:03;;;;;;;4.38;2.03;;;;;;;;;;6182576;23;20092;-77
2022/02/08 22:51:34;;;;;;;5.07;2.27;;;;;;;;;;6182729;23;20802;-77
2022/02/08 22:54:02;;;;;;;9.10;2.33;;;;;;;;;;6182589;23;20100;-78
2022/02/08 22:56:33;;;;;;;3.08;1.88;;;;;;;;;;6182438;23;20020;-78
2022/02/08 22:59:08;;;;;;;4.88;2.15;;;;;;;;;;6182499;23;20399;-77
2022/02/08 23:01:37;;;;;;;4.68;1.77;;;;;;;;;;6177086;23;20144;-77
2022/02/08 23:04:07;;;;;;;8.53;2.40;;;;;;;;;;6181976;23;20021;-77
2022/02/08 23:06:38;;;;;;;4.50;1.85;;;;;;;;;;6182552;23;20723;-78
2022/02/08 23:09:12;;;;;;;3.65;1.65;;;;;;;;;;6205730;23;20009;-77
2022/02/08 23:12:05;;;;;;;5.60;2.13;;;;;;;;;;6182099;23;20017;-78
2022/02/08 23:14:49;;;;;;;3.67;1.80;;;;;;;;;;6181622;23;20446;-77
2022/02/08 23:37:08;;;;;;;4.22;1.60;;;;;;;;;;6182459;23;20020;-78
2022/02/08 23:39:39;;;;;;;5.93;1.70;;;;;;;;;;6182720;23;20023;-77
2022/02/08 23:42:10;;;;;;;5.13;2.13;;;;;;;;;;6179364;23;20013;-78
2022/02/08 23:44:42;;;;;;;5.93;2.17;;;;;;;;;;6180813;23;20083;-78
2022/02/08 23:47:17;;;;;;;4.05;1.63;;;;;;;;;;6175089;23;20589;-78
2022/02/08 23:49:50;;;;;;;8.35;1.60;;;;;;;;;;6182578;23;20032;-78
2022/02/08 23:52:28;;;;;;;4.22;2.15;;;;;;;;;;6180832;23;20013;-77
2022/02/08 23:54:59;;;;;;;4.20;1.55;;;;;;;;;;6182656;23;20036;-79
2022/02/08 23:57:30;;;;;;;6.63;1.77;;;;;;;;;;6181283;23;20075;-77
